sensor_id;sensor_type;location;lat;lon;timestamp;temperature;humidity
15916;DHT22;8057;47.830;-3.870;2022-11-15T00:01:48;14.10;99.90
15916;DHT22;8057;47.830;-3.870;2022-11-15T00:06:02;14.10;99.90
15916;DHT22;8057;47.830;-3.870;2022-11-15T00:10:11;14.10;99.90
15916;DHT22;8057;47.830;-3.870;2022-11-15T00:14:22;14.10;99.90
15916;DHT22;8057;47.830;-3.870;2022-11-15T00:18:31;14.00;99.90
15916;DHT22;8057;47.830;-3.870;2022-11-15T00:22:41;14.00;99.90
15916;DHT22;8057;47.830;-3.870;2022-11-15T00:26:50;14.10;99.90
15916;DHT22;8057;47.830;-3.870;2022-11-15T00:31:02;14.10;99.90
15916;DHT22;8057;47.830;-3.870;2022-11-15T00:35:12;14.10;99.90
15916;DHT22;8057;47.830;-3.870;2022-11-15T00:39:21;14.10;99.90
15916;DHT22;8057;47.830;-3.870;2022-11-15T00:43:30;14.10;99.90
15916;DHT22;8057;47.830;-3.870;2022-11-15T00:47:44;14.10;99.90
15916;DHT22;8057;47.830;-3.870;2022-11-15T00:51:53;14.20;99.90
15916;DHT22;8057;47.830;-3.870;2022-11-15T00:56:02;14.20;99.90
15916;DHT22;8057;47.830;-3.870;2022-11-15T01:00:12;14.20;99.90
15916;DHT22;8057;47.830;-3.870;2022-11-15T01:04:23;14.30;99.90
15916;DHT22;8057;47.830;-3.870;2022-11-15T01:08:32;14.30;99.90
15916;DHT22;8057;47.830;-3.870;2022-11-15T01:12:42;14.20;99.90
15916;DHT22;8057;47.830;-3.870;2022-11-15T01:16:51;14.20;99.90
15916;DHT22;8057;47.830;-3.870;2022-11-15T01:21:07;14.20;99.90
15916;DHT22;8057;47.830;-3.870;2022-11-15T01:25:17;14.20;99.90
15916;DHT22;8057;47.830;-3.870;2022-11-15T01:29:26;14.20;99.90
15916;DHT22;8057;47.830;-3.870;2022-11-15T01:33:35;14.20;99.90
15916;DHT22;8057;47.830;-3.870;2022-11-15T01:37:46;14.20;99.90
15916;DHT22;8057;47.830;-3.870;2022-11-15T01:41:55;14.20;99.90
15916;DHT22;8057;47.830;-3.870;2022-11-15T01:46:06;14.20;99.90
15916;DHT22;8057;47.830;-3.870;2022-11-15T01:50:23;14.20;99.90
15916;DHT22;8057;47.830;-3.870;2022-11-15T01:54:36;14.20;99.90
15916;DHT22;8057;47.830;-3.870;2022-11-15T01:58:45;14.20;99.90
15916;DHT22;8057;47.830;-3.870;2022-11-15T02:02:55;14.20;99.90
15916;DHT22;8057;47.830;-3.870;2022-11-15T02:07:05;14.30;99.90
15916;DHT22;8057;47.830;-3.870;2022-11-15T02:11:17;14.30;99.90
15916;DHT22;8057;47.830;-3.870;2022-11-15T02:15:33;14.20;99.90
15916;DHT22;8057;47.830;-3.870;2022-11-15T02:29:18;14.10;99.90
15916;DHT22;8057;47.830;-3.870;2022-11-15T02:33:35;14.10;99.90
15916;DHT22;8057;47.830;-3.870;2022-11-15T02:37:52;14.20;99.90
15916;DHT22;8057;47.830;-3.870;2022-11-15T02:42:11;14.10;99.90
15916;DHT22;8057;47.830;-3.870;2022-11-15T02:46:38;14.20;99.90
15916;DHT22;8057;47.830;-3.870;2022-11-15T02:51:22;14.20;99.90
15916;DHT22;8057;47.830;-3.870;2022-11-15T02:55:33;14.30;99.90
15916;DHT22;8057;47.830;-3.870;2022-11-15T03:00:03;14.30;99.90
15916;DHT22;8057;47.830;-3.870;2022-11-15T03:04:19;14.30;99.90
15916;DHT22;8057;47.830;-3.870;2022-11-15T03:08:40;14.40;99.90
15916;DHT22;8057;47.830;-3.870;2022-11-15T03:12:56;14.40;99.90
15916;DHT22;8057;47.830;-3.870;2022-11-15T03:17:12;14.40;99.90
15916;DHT22;8057;47.830;-3.870;2022-11-15T03:21:23;14.40;99.90
15916;DHT22;8057;47.830;-3.870;2022-11-15T03:25:36;14.40;99.90
15916;DHT22;8057;47.830;-3.870;2022-11-15T03:29:51;14.40;99.90
15916;DHT22;8057;47.830;-3.870;2022-11-15T03:34:06;14.40;99.90
15916;DHT22;8057;47.830;-3.870;2022-11-15T03:38:22;14.50;99.90
15916;DHT22;8057;47.830;-3.870;2022-11-15T03:42:39;14.50;99.90
15916;DHT22;8057;47.830;-3.870;2022-11-15T03:47:00;14.50;99.90
15916;DHT22;8057;47.830;-3.870;2022-11-15T03:51:11;14.40;99.90
15916;DHT22;8057;47.830;-3.870;2022-11-15T03:55:21;14.40;99.90
15916;DHT22;8057;47.830;-3.870;2022-11-15T03:59:32;14.30;99.90
15916;DHT22;8057;47.830;-3.870;2022-11-15T04:03:41;14.40;99.90
15916;DHT22;8057;47.830;-3.870;2022-11-15T04:07:50;14.40;99.90
15916;DHT22;8057;47.830;-3.870;2022-11-15T04:11:59;14.40;99.90
15916;DHT22;8057;47.830;-3.870;2022-11-15T04:16:10;14.40;99.90
15916;DHT22;8057;47.830;-3.870;2022-11-15T04:20:21;14.40;99.90
15916;DHT22;8057;47.830;-3.870;2022-11-15T04:25:03;14.50;99.90
15916;DHT22;8057;47.830;-3.870;2022-11-15T04:29:12;14.50;99.90
15916;DHT22;8057;47.830;-3.870;2022-11-15T04:33:50;14.60;99.90
15916;DHT22;8057;47.830;-3.870;2022-11-15T04:37:59;14.60;99.90
15916;DHT22;8057;47.830;-3.870;2022-11-15T04:42:09;14.60;99.90
15916;DHT22;8057;47.830;-3.870;2022-11-15T04:46:19;14.70;99.90
15916;DHT22;8057;47.830;-3.870;2022-11-15T04:50:29;14.70;99.90
15916;DHT22;8057;47.830;-3.870;2022-11-15T04:54:40;14.70;99.90
15916;DHT22;8057;47.830;-3.870;2022-11-15T04:58:50;14.70;99.90
15916;DHT22;8057;47.830;-3.870;2022-11-15T05:02:59;14.70;99.90
15916;DHT22;8057;47.830;-3.870;2022-11-15T05:07:26;14.70;99.90
15916;DHT22;8057;47.830;-3.870;2022-11-15T05:11:37;14.70;99.90
15916;DHT22;8057;47.830;-3.870;2022-11-15T05:15:47;14.80;99.90
15916;DHT22;8057;47.830;-3.870;2022-11-15T05:19:56;14.80;99.90
15916;DHT22;8057;47.830;-3.870;2022-11-15T05:24:09;14.80;99.90
15916;DHT22;8057;47.830;-3.870;2022-11-15T05:28:18;14.80;99.90
15916;DHT22;8057;47.830;-3.870;2022-11-15T05:32:28;14.80;99.90
15916;DHT22;8057;47.830;-3.870;2022-11-15T05:36:38;14.90;99.90
15916;DHT22;8057;47.830;-3.870;2022-11-15T05:40:51;14.90;99.90
15916;DHT22;8057;47.830;-3.870;2022-11-15T05:45:02;14.90;99.90
15916;DHT22;8057;47.830;-3.870;2022-11-15T05:49:14;14.90;99.90
15916;DHT22;8057;47.830;-3.870;2022-11-15T05:53:25;14.90;99.90
15916;DHT22;8057;47.830;-3.870;2022-11-15T05:57:36;15.00;99.90
15916;DHT22;8057;47.830;-3.870;2022-11-15T06:01:46;15.00;99.90
15916;DHT22;8057;47.830;-3.870;2022-11-15T06:05:56;15.00;99.90
15916;DHT22;8057;47.830;-3.870;2022-11-15T06:10:06;15.00;99.90
15916;DHT22;8057;47.830;-3.870;2022-11-15T06:14:17;15.00;99.90
15916;DHT22;8057;47.830;-3.870;2022-11-15T06:18:26;15.00;99.90
15916;DHT22;8057;47.830;-3.870;2022-11-15T06:22:35;15.00;99.90
15916;DHT22;8057;47.830;-3.870;2022-11-15T06:26:45;15.00;99.90
15916;DHT22;8057;47.830;-3.870;2022-11-15T06:30:55;15.00;99.90
15916;DHT22;8057;47.830;-3.870;2022-11-15T06:35:05;15.00;99.90
15916;DHT22;8057;47.830;-3.870;2022-11-15T06:39:15;14.90;99.90
15916;DHT22;8057;47.830;-3.870;2022-11-15T06:43:26;14.70;99.90
15916;DHT22;8057;47.830;-3.870;2022-11-15T06:47:44;14.60;99.90
15916;DHT22;8057;47.830;-3.870;2022-11-15T06:51:54;14.40;99.90
15916;DHT22;8057;47.830;-3.870;2022-11-15T06:56:04;14.30;99.90
15916;DHT22;8057;47.830;-3.870;2022-11-15T07:00:16;14.20;99.90
15916;DHT22;8057;47.830;-3.870;2022-11-15T07:04:26;14.10;99.90
15916;DHT22;8057;47.830;-3.870;2022-11-15T07:08:36;14.00;99.90
15916;DHT22;8057;47.830;-3.870;2022-11-15T07:12:47;13.90;99.90
15916;DHT22;8057;47.830;-3.870;2022-11-15T07:16:56;13.80;99.90
15916;DHT22;8057;47.830;-3.870;2022-11-15T07:21:09;13.80;99.90
15916;DHT22;8057;47.830;-3.870;2022-11-15T07:25:22;13.80;99.90
15916;DHT22;8057;47.830;-3.870;2022-11-15T07:29:35;13.70;99.90
15916;DHT22;8057;47.830;-3.870;2022-11-15T07:33:44;13.70;99.90
15916;DHT22;8057;47.830;-3.870;2022-11-15T07:37:56;13.70;99.90
15916;DHT22;8057;47.830;-3.870;2022-11-15T07:42:06;13.70;99.90
15916;DHT22;8057;47.830;-3.870;2022-11-15T07:46:32;13.70;99.90
15916;DHT22;8057;47.830;-3.870;2022-11-15T07:50:43;13.70;99.90
15916;DHT22;8057;47.830;-3.870;2022-11-15T07:54:53;13.80;99.90
15916;DHT22;8057;47.830;-3.870;2022-11-15T07:59:03;13.80;99.90
15916;DHT22;8057;47.830;-3.870;2022-11-15T08:03:13;13.80;99.90
15916;DHT22;8057;47.830;-3.870;2022-11-15T08:07:23;13.80;99.90
15916;DHT22;8057;47.830;-3.870;2022-11-15T08:11:34;13.60;99.90
15916;DHT22;8057;47.830;-3.870;2022-11-15T08:15:43;13.70;99.90
15916;DHT22;8057;47.830;-3.870;2022-11-15T08:19:53;13.70;99.90
15916;DHT22;8057;47.830;-3.870;2022-11-15T08:24:03;13.70;99.90
15916;DHT22;8057;47.830;-3.870;2022-11-15T08:28:16;13.60;99.90
15916;DHT22;8057;47.830;-3.870;2022-11-15T08:32:26;13.50;99.90
15916;DHT22;8057;47.830;-3.870;2022-11-15T08:36:35;13.50;99.90
15916;DHT22;8057;47.830;-3.870;2022-11-15T08:40:52;13.60;99.90
15916;DHT22;8057;47.830;-3.870;2022-11-15T08:45:04;13.70;99.90
15916;DHT22;8057;47.830;-3.870;2022-11-15T08:49:13;13.80;99.90
15916;DHT22;8057;47.830;-3.870;2022-11-15T08:53:23;13.80;99.90
15916;DHT22;8057;47.830;-3.870;2022-11-15T08:57:32;13.80;99.90
15916;DHT22;8057;47.830;-3.870;2022-11-15T09:01:43;13.80;99.90
15916;DHT22;8057;47.830;-3.870;2022-11-15T09:05:55;14.00;99.90
15916;DHT22;8057;47.830;-3.870;2022-11-15T09:10:11;14.10;99.90
15916;DHT22;8057;47.830;-3.870;2022-11-15T09:14:21;14.00;99.90
15916;DHT22;8057;47.830;-3.870;2022-11-15T09:18:35;14.10;99.90
15916;DHT22;8057;47.830;-3.870;2022-11-15T09:22:50;14.10;99.90
15916;DHT22;8057;47.830;-3.870;2022-11-15T09:27:09;14.20;99.90
15916;DHT22;8057;47.830;-3.870;2022-11-15T09:31:19;14.40;99.90
15916;DHT22;8057;47.830;-3.870;2022-11-15T09:35:33;14.50;99.90
15916;DHT22;8057;47.830;-3.870;2022-11-15T09:39:47;14.50;99.90
15916;DHT22;8057;47.830;-3.870;2022-11-15T09:54:22;14.60;99.90
15916;DHT22;8057;47.830;-3.870;2022-11-15T09:59:01;14.60;99.90
15916;DHT22;8057;47.830;-3.870;2022-11-15T10:03:23;14.70;99.90
15916;DHT22;8057;47.830;-3.870;2022-11-15T10:07:46;14.60;99.90
15916;DHT22;8057;47.830;-3.870;2022-11-15T10:12:12;14.70;99.90
15916;DHT22;8057;47.830;-3.870;2022-11-15T10:21:16;14.60;99.90
15916;DHT22;8057;47.830;-3.870;2022-11-15T10:25:32;14.60;99.90
15916;DHT22;8057;47.830;-3.870;2022-11-15T10:29:50;14.40;99.90
15916;DHT22;8057;47.830;-3.870;2022-11-15T10:34:17;14.30;99.90
15916;DHT22;8057;47.830;-3.870;2022-11-15T10:38:55;14.30;99.90
15916;DHT22;8057;47.830;-3.870;2022-11-15T10:43:14;14.20;99.90
15916;DHT22;8057;47.830;-3.870;2022-11-15T10:47:38;14.20;99.90
15916;DHT22;8057;47.830;-3.870;2022-11-15T10:51:59;14.10;99.90
15916;DHT22;8057;47.830;-3.870;2022-11-15T10:56:35;14.00;99.90
15916;DHT22;8057;47.830;-3.870;2022-11-15T11:00:53;13.90;99.90
15916;DHT22;8057;47.830;-3.870;2022-11-15T11:05:28;13.80;99.90
15916;DHT22;8057;47.830;-3.870;2022-11-15T11:09:57;14.10;99.90
15916;DHT22;8057;47.830;-3.870;2022-11-15T11:14:43;14.80;99.90
15916;DHT22;8057;47.830;-3.870;2022-11-15T11:19:03;15.00;99.90
15916;DHT22;8057;47.830;-3.870;2022-11-15T11:23:36;15.00;99.90
15916;DHT22;8057;47.830;-3.870;2022-11-15T11:28:25;15.00;99.90
15916;DHT22;8057;47.830;-3.870;2022-11-15T11:33:10;15.20;99.90
15916;DHT22;8057;47.830;-3.870;2022-11-15T11:37:36;15.20;99.90
15916;DHT22;8057;47.830;-3.870;2022-11-15T11:41:58;15.30;99.90
15916;DHT22;8057;47.830;-3.870;2022-11-15T11:51:16;15.20;99.90
15916;DHT22;8057;47.830;-3.870;2022-11-15T11:55:32;15.00;99.90
15916;DHT22;8057;47.830;-3.870;2022-11-15T11:59:50;15.10;99.90
15916;DHT22;8057;47.830;-3.870;2022-11-15T12:04:09;15.20;99.90
15916;DHT22;8057;47.830;-3.870;2022-11-15T12:08:33;15.40;99.90
15916;DHT22;8057;47.830;-3.870;2022-11-15T12:12:53;15.30;99.90
15916;DHT22;8057;47.830;-3.870;2022-11-15T12:17:09;15.10;99.90
15916;DHT22;8057;47.830;-3.870;2022-11-15T12:21:24;14.90;99.90
15916;DHT22;8057;47.830;-3.870;2022-11-15T12:25:44;14.90;99.90
15916;DHT22;8057;47.830;-3.870;2022-11-15T12:29:58;15.30;99.90
15916;DHT22;8057;47.830;-3.870;2022-11-15T12:34:37;15.10;99.90
15916;DHT22;8057;47.830;-3.870;2022-11-15T12:38:55;14.70;99.90
15916;DHT22;8057;47.830;-3.870;2022-11-15T12:43:37;14.60;99.90
15916;DHT22;8057;47.830;-3.870;2022-11-15T12:47:49;14.50;99.90
15916;DHT22;8057;47.830;-3.870;2022-11-15T12:52:09;14.50;99.90
15916;DHT22;8057;47.830;-3.870;2022-11-15T12:56:23;14.60;99.90
15916;DHT22;8057;47.830;-3.870;2022-11-15T13:00:41;14.70;99.90
15916;DHT22;8057;47.830;-3.870;2022-11-15T13:04:53;14.70;99.90
15916;DHT22;8057;47.830;-3.870;2022-11-15T13:13:58;14.90;99.90
15916;DHT22;8057;47.830;-3.870;2022-11-15T13:18:52;14.90;99.90
15916;DHT22;8057;47.830;-3.870;2022-11-15T13:23:09;14.90;99.90
15916;DHT22;8057;47.830;-3.870;2022-11-15T13:27:22;14.80;99.90
15916;DHT22;8057;47.830;-3.870;2022-11-15T13:31:36;14.60;99.90
15916;DHT22;8057;47.830;-3.870;2022-11-15T13:35:47;14.50;99.90
15916;DHT22;8057;47.830;-3.870;2022-11-15T13:40:21;14.60;99.90
15916;DHT22;8057;47.830;-3.870;2022-11-15T13:44:34;14.70;99.90
15916;DHT22;8057;47.830;-3.870;2022-11-15T13:48:44;14.80;99.90
15916;DHT22;8057;47.830;-3.870;2022-11-15T13:52:56;14.80;99.90
15916;DHT22;8057;47.830;-3.870;2022-11-15T13:57:12;14.90;99.90
15916;DHT22;8057;47.830;-3.870;2022-11-15T14:06:08;14.70;99.90
15916;DHT22;8057;47.830;-3.870;2022-11-15T14:10:32;14.30;99.90
15916;DHT22;8057;47.830;-3.870;2022-11-15T14:14:49;14.10;99.90
15916;DHT22;8057;47.830;-3.870;2022-11-15T14:19:01;13.90;99.90
15916;DHT22;8057;47.830;-3.870;2022-11-15T14:23:27;13.90;99.90
15916;DHT22;8057;47.830;-3.870;2022-11-15T14:27:36;13.90;99.90
15916;DHT22;8057;47.830;-3.870;2022-11-15T14:31:45;13.90;99.90
15916;DHT22;8057;47.830;-3.870;2022-11-15T14:35:55;13.90;99.90
15916;DHT22;8057;47.830;-3.870;2022-11-15T14:40:16;13.90;99.90
15916;DHT22;8057;47.830;-3.870;2022-11-15T14:44:25;14.00;99.90
15916;DHT22;8057;47.830;-3.870;2022-11-15T14:48:35;14.20;99.90
15916;DHT22;8057;47.830;-3.870;2022-11-15T14:52:48;14.20;99.90
15916;DHT22;8057;47.830;-3.870;2022-11-15T14:57:03;14.30;99.90
15916;DHT22;8057;47.830;-3.870;2022-11-15T15:01:16;14.20;99.90
15916;DHT22;8057;47.830;-3.870;2022-11-15T15:05:32;14.20;99.90
15916;DHT22;8057;47.830;-3.870;2022-11-15T15:09:42;14.10;99.90
15916;DHT22;8057;47.830;-3.870;2022-11-15T15:13:53;14.00;99.90
15916;DHT22;8057;47.830;-3.870;2022-11-15T15:18:07;13.90;99.90
15916;DHT22;8057;47.830;-3.870;2022-11-15T15:22:18;13.90;99.90
15916;DHT22;8057;47.830;-3.870;2022-11-15T15:26:29;13.80;99.90
15916;DHT22;8057;47.830;-3.870;2022-11-15T15:30:49;13.80;99.90
15916;DHT22;8057;47.830;-3.870;2022-11-15T15:35:00;13.70;99.90
15916;DHT22;8057;47.830;-3.870;2022-11-15T15:39:10;13.60;99.90
15916;DHT22;8057;47.830;-3.870;2022-11-15T15:43:20;13.50;99.90
15916;DHT22;8057;47.830;-3.870;2022-11-15T15:47:31;13.40;99.90
15916;DHT22;8057;47.830;-3.870;2022-11-15T15:51:41;13.40;99.90
15916;DHT22;8057;47.830;-3.870;2022-11-15T15:55:51;13.40;99.90
15916;DHT22;8057;47.830;-3.870;2022-11-15T16:00:00;13.40;99.90
15916;DHT22;8057;47.830;-3.870;2022-11-15T16:04:11;13.30;99.90
15916;DHT22;8057;47.830;-3.870;2022-11-15T16:08:22;13.30;99.90
15916;DHT22;8057;47.830;-3.870;2022-11-15T16:12:55;13.20;99.90
15916;DHT22;8057;47.830;-3.870;2022-11-15T16:17:15;13.20;99.90
15916;DHT22;8057;47.830;-3.870;2022-11-15T16:21:42;13.20;99.90
15916;DHT22;8057;47.830;-3.870;2022-11-15T16:25:55;13.20;99.90
15916;DHT22;8057;47.830;-3.870;2022-11-15T16:30:22;13.20;99.90
15916;DHT22;8057;47.830;-3.870;2022-11-15T16:34:31;13.20;99.90
15916;DHT22;8057;47.830;-3.870;2022-11-15T16:38:51;13.20;99.90
15916;DHT22;8057;47.830;-3.870;2022-11-15T16:43:00;13.20;99.90
15916;DHT22;8057;47.830;-3.870;2022-11-15T16:47:16;13.30;99.90
15916;DHT22;8057;47.830;-3.870;2022-11-15T16:51:32;13.20;99.90
15916;DHT22;8057;47.830;-3.870;2022-11-15T16:55:44;13.10;99.90
15916;DHT22;8057;47.830;-3.870;2022-11-15T16:59:53;13.10;99.90
15916;DHT22;8057;47.830;-3.870;2022-11-15T17:04:03;13.10;99.90
15916;DHT22;8057;47.830;-3.870;2022-11-15T17:08:38;13.10;99.90
15916;DHT22;8057;47.830;-3.870;2022-11-15T17:12:48;13.20;99.90
15916;DHT22;8057;47.830;-3.870;2022-11-15T17:16:57;13.10;99.90
15916;DHT22;8057;47.830;-3.870;2022-11-15T17:21:12;13.00;99.90
15916;DHT22;8057;47.830;-3.870;2022-11-15T17:25:33;12.90;99.90
15916;DHT22;8057;47.830;-3.870;2022-11-15T17:29:43;12.80;99.90
15916;DHT22;8057;47.830;-3.870;2022-11-15T17:33:52;12.90;99.90
15916;DHT22;8057;47.830;-3.870;2022-11-15T17:38:02;13.00;99.90
15916;DHT22;8057;47.830;-3.870;2022-11-15T17:42:15;13.00;99.90
15916;DHT22;8057;47.830;-3.870;2022-11-15T17:46:25;13.00;99.90
15916;DHT22;8057;47.830;-3.870;2022-11-15T17:50:34;12.90;99.90
15916;DHT22;8057;47.830;-3.870;2022-11-15T17:54:46;13.10;99.90
15916;DHT22;8057;47.830;-3.870;2022-11-15T17:58:57;13.20;99.90
15916;DHT22;8057;47.830;-3.870;2022-11-15T18:03:14;13.00;99.90
15916;DHT22;8057;47.830;-3.870;2022-11-15T18:07:23;12.70;99.90
15916;DHT22;8057;47.830;-3.870;2022-11-15T18:11:34;12.50;99.90
15916;DHT22;8057;47.830;-3.870;2022-11-15T18:15:53;12.40;99.90
15916;DHT22;8057;47.830;-3.870;2022-11-15T18:20:03;12.40;99.90
15916;DHT22;8057;47.830;-3.870;2022-11-15T18:24:12;12.50;99.90
15916;DHT22;8057;47.830;-3.870;2022-11-15T18:28:21;12.50;99.90
15916;DHT22;8057;47.830;-3.870;2022-11-15T18:32:32;12.60;99.90
15916;DHT22;8057;47.830;-3.870;2022-11-15T18:36:41;12.50;99.90
15916;DHT22;8057;47.830;-3.870;2022-11-15T18:40:51;12.60;99.90
15916;DHT22;8057;47.830;-3.870;2022-11-15T18:45:00;12.60;99.90
15916;DHT22;8057;47.830;-3.870;2022-11-15T18:49:12;12.60;99.90
15916;DHT22;8057;47.830;-3.870;2022-11-15T18:53:22;12.70;99.90
15916;DHT22;8057;47.830;-3.870;2022-11-15T18:57:32;12.80;99.90
15916;DHT22;8057;47.830;-3.870;2022-11-15T19:01:43;12.80;99.90
15916;DHT22;8057;47.830;-3.870;2022-11-15T19:06:02;12.80;99.90
15916;DHT22;8057;47.830;-3.870;2022-11-15T19:10:12;12.80;99.90
15916;DHT22;8057;47.830;-3.870;2022-11-15T19:14:21;12.80;99.90
15916;DHT22;8057;47.830;-3.870;2022-11-15T19:18:33;12.80;99.90
15916;DHT22;8057;47.830;-3.870;2022-11-15T19:22:43;12.80;99.90
15916;DHT22;8057;47.830;-3.870;2022-11-15T19:26:53;12.80;99.90
15916;DHT22;8057;47.830;-3.870;2022-11-15T19:31:03;12.90;99.90
15916;DHT22;8057;47.830;-3.870;2022-11-15T19:35:13;12.90;99.90
15916;DHT22;8057;47.830;-3.870;2022-11-15T19:39:25;12.90;99.90
15916;DHT22;8057;47.830;-3.870;2022-11-15T19:43:35;12.90;99.90
15916;DHT22;8057;47.830;-3.870;2022-11-15T19:47:44;12.80;99.90
15916;DHT22;8057;47.830;-3.870;2022-11-15T19:51:53;12.80;99.90
15916;DHT22;8057;47.830;-3.870;2022-11-15T19:56:06;12.70;99.90
15916;DHT22;8057;47.830;-3.870;2022-11-15T20:00:16;12.70;99.90
15916;DHT22;8057;47.830;-3.870;2022-11-15T20:04:27;12.70;99.90
15916;DHT22;8057;47.830;-3.870;2022-11-15T20:08:36;12.70;99.90
15916;DHT22;8057;47.830;-3.870;2022-11-15T20:12:46;12.80;99.90
15916;DHT22;8057;47.830;-3.870;2022-11-15T20:16:55;12.90;99.90
15916;DHT22;8057;47.830;-3.870;2022-11-15T20:21:06;12.90;99.90
15916;DHT22;8057;47.830;-3.870;2022-11-15T20:25:15;12.90;99.90
15916;DHT22;8057;47.830;-3.870;2022-11-15T20:29:26;12.90;99.90
15916;DHT22;8057;47.830;-3.870;2022-11-15T20:33:35;13.00;99.90
15916;DHT22;8057;47.830;-3.870;2022-11-15T20:37:45;12.90;99.90
15916;DHT22;8057;47.830;-3.870;2022-11-15T20:41:54;12.70;99.90
15916;DHT22;8057;47.830;-3.870;2022-11-15T20:46:05;12.60;99.90
15916;DHT22;8057;47.830;-3.870;2022-11-15T20:50:14;12.50;99.90
15916;DHT22;8057;47.830;-3.870;2022-11-15T20:54:43;12.50;99.90
15916;DHT22;8057;47.830;-3.870;2022-11-15T20:58:52;12.40;99.90
15916;DHT22;8057;47.830;-3.870;2022-11-15T21:03:04;12.50;99.90
15916;DHT22;8057;47.830;-3.870;2022-11-15T21:07:14;12.60;99.90
15916;DHT22;8057;47.830;-3.870;2022-11-15T21:11:23;12.60;99.90
15916;DHT22;8057;47.830;-3.870;2022-11-15T21:15:50;12.60;99.90
15916;DHT22;8057;47.830;-3.870;2022-11-15T21:20:01;12.70;99.90
15916;DHT22;8057;47.830;-3.870;2022-11-15T21:24:28;12.70;99.90
15916;DHT22;8057;47.830;-3.870;2022-11-15T23:17:44;12.90;99.90
15916;DHT22;8057;47.830;-3.870;2022-11-15T23:21:57;12.80;99.90
15916;DHT22;8057;47.830;-3.870;2022-11-15T23:26:27;12.90;99.90
15916;DHT22;8057;47.830;-3.870;2022-11-15T23:30:42;12.90;99.90
15916;DHT22;8057;47.830;-3.870;2022-11-15T23:35:13;13.00;99.90
15916;DHT22;8057;47.830;-3.870;2022-11-15T23:39:27;13.10;99.90
15916;DHT22;8057;47.830;-3.870;2022-11-15T23:43:47;13.20;99.90
15916;DHT22;8057;47.830;-3.870;2022-11-15T23:48:01;13.30;99.90
15916;DHT22;8057;47.830;-3.870;2022-11-15T23:52:12;13.30;99.90
15916;DHT22;8057;47.830;-3.870;2022-11-15T23:56:24;13.10;99.90
